Absecon, New Jersey
Current Conditions -  °F | °C
As of 10:54 AM on Tuesday 21 Oct 2014 (Local Time) from KACY Reporting Station
Clear Clear  
Wind Chill: 65°   Ceiling: Unl
Heat Index: 65°   Visibility: 10mi
Dew Point: 53°   Wind: 8mph
Humidity: 65%   Direction: 200°SSW
Pressure: 29.86"   Gusts: NA
Location:  39.43°N, 74.51°W
Report Text: KACY 211454Z 20007KT 10SM CLR 18/12 A2986 RMK AO2 SLP111 T01830117 58005
Loading
Personal Weather Stations






























Interactive Weather Map New forecast layout! Learn more

10-Day Weather Forecast

Advertisements
Track Severe Weather on mobile